Time;durP1;ratioP1;P1;durP2;ratioP2;P2;SDS_P1;SDS_P2;PMS_P1;PMS_P2;Temp;Humidity;BMP_temperature;BMP_pressure;BME280_temperature;BME280_humidity;BME280_pressure;Samples;Min_cycle;Max_cycle;Signal;HPM_P1;HPM_P2
2022/05/02 00:01:24;;;;;;;2.35;2.15;;;;;;;8.28;100.00;90992.31;5033035;28;20033;-62
2022/05/02 00:03:50;;;;;;;2.10;1.42;;;;;;;8.24;100.00;90992.13;5032856;28;20128;-62
2022/05/02 00:06:16;;;;;;;2.25;2.05;;;;;;;8.15;100.00;90987.78;5032581;28;20493;-62
2022/05/02 00:08:41;;;;;;;1.67;1.58;;;;;;;7.99;100.00;90968.72;5032612;28;20021;-62
2022/05/02 00:11:07;;;;;;;1.85;1.75;;;;;;;8.24;100.00;90981.53;5032734;28;20032;-62
2022/05/02 00:13:32;;;;;;;1.50;1.40;;;;;;;8.26;100.00;90986.53;5032186;28;20521;-62
2022/05/02 00:15:58;;;;;;;1.48;1.42;;;;;;;8.01;100.00;90983.25;5032497;28;20178;-62
2022/05/02 00:18:23;;;;;;;2.03;1.92;;;;;;;8.10;100.00;90986.81;5032290;28;20037;-62
2022/05/02 00:20:49;;;;;;;1.13;1.13;;;;;;;8.04;100.00;90980.00;5032695;28;20029;-62
2022/05/02 00:23:14;;;;;;;1.20;1.17;;;;;;;8.25;100.00;90979.66;5032443;28;20029;-62
2022/05/02 00:25:40;;;;;;;2.05;1.90;;;;;;;8.24;100.00;90973.59;5032255;28;20110;-63
2022/05/02 00:28:10;;;;;;;1.60;1.50;;;;;;;8.27;100.00;90974.84;5031767;28;20104;-62
2022/05/02 00:30:36;;;;;;;2.15;1.95;;;;;;;8.27;100.00;90959.75;5032318;28;20164;-63
2022/05/02 00:33:01;;;;;;;1.25;1.23;;;;;;;8.22;100.00;90967.00;5032240;28;20116;-62
2022/05/02 00:35:27;;;;;;;1.27;1.20;;;;;;;8.17;100.00;90964.44;5032158;28;20037;-62
2022/05/02 00:37:53;;;;;;;1.98;1.85;;;;;;;8.32;100.00;90970.22;5031150;28;20029;-62
2022/05/02 00:40:18;;;;;;;2.90;2.53;;;;;;;8.16;100.00;90965.50;5032063;28;20463;-62
2022/05/02 00:42:45;;;;;;;1.35;1.30;;;;;;;8.13;100.00;90963.44;5031587;28;20025;-62
2022/05/02 00:45:14;;;;;;;1.80;1.70;;;;;;;8.15;100.00;90962.06;5032000;28;20055;-62
2022/05/02 00:47:40;;;;;;;5.18;1.83;;;;;;;8.10;100.00;90962.16;5031928;28;20032;-62
2022/05/02 00:50:07;;;;;;;6.72;1.40;;;;;;;8.28;100.00;90963.16;5031623;28;20026;-62
2022/05/02 00:52:34;;;;;;;1.83;1.70;;;;;;;8.18;100.00;90945.59;5031890;28;20026;-63
2022/05/02 00:55:01;;;;;;;1.00;1.00;;;;;;;8.06;100.00;90940.00;5031821;28;20518;-63
2022/05/02 00:57:26;;;;;;;2.72;2.42;;;;;;;8.16;100.00;90952.25;5031214;28;20034;-63
2022/05/02 00:59:52;;;;;;;1.45;1.35;;;;;;;8.32;100.00;90951.69;5031636;28;20021;-63
2022/05/02 01:02:17;;;;;;;2.92;2.72;;;;;;;8.19;100.00;90943.72;5031908;28;20082;-62
2022/05/02 01:04:44;;;;;;;2.35;2.22;;;;;;;8.10;100.00;90947.06;5031649;28;20042;-62
2022/05/02 01:07:18;;;;;;;2.88;2.60;;;;;;;8.13;100.00;90939.59;5031853;28;20029;-63
2022/05/02 01:09:46;;;;;;;1.40;1.30;;;;;;;8.04;100.00;90937.63;5031731;28;20083;-62
2022/05/02 01:12:14;;;;;;;1.75;1.63;;;;;;;7.98;100.00;90936.16;5031118;28;20079;-62
2022/05/02 01:14:42;;;;;;;2.55;1.75;;;;;;;7.96;100.00;90926.91;5031585;28;20029;-62
2022/05/02 01:17:08;;;;;;;1.85;1.75;;;;;;;8.06;100.00;90935.47;5031430;28;20462;-63
2022/05/02 01:19:34;;;;;;;1.98;1.88;;;;;;;8.10;100.00;90928.50;5031288;28;20034;-62
2022/05/02 01:22:00;;;;;;;0.98;0.98;;;;;;;8.11;100.00;90938.03;5031445;28;20483;-63
2022/05/02 01:24:33;;;;;;;4.28;2.13;;;;;;;7.84;100.00;90935.34;5031102;28;20049;-62
2022/05/02 01:26:59;;;;;;;1.55;1.45;;;;;;;7.81;100.00;90926.09;5030860;28;20036;-63
2022/05/02 01:29:25;;;;;;;1.88;1.77;;;;;;;8.00;100.00;90926.03;5031179;28;20104;-62
2022/05/02 01:31:53;;;;;;;1.90;1.77;;;;;;;8.08;100.00;90928.03;5031334;28;20526;-63
2022/05/02 01:34:18;;;;;;;1.67;1.58;;;;;;;7.97;100.00;90920.53;5031200;28;20519;-63
2022/05/02 01:36:44;;;;;;;1.05;1.05;;;;;;;8.08;100.00;90906.03;5030980;28;20029;-62
2022/05/02 01:39:10;;;;;;;1.95;1.85;;;;;;;7.90;100.00;90907.69;5031129;28;20033;-63
2022/05/02 01:41:35;;;;;;;2.40;2.20;;;;;;;7.92;100.00;90905.53;5030736;28;20388;-62
2022/05/02 01:44:00;;;;;;;2.20;2.00;;;;;;;7.99;100.00;90918.38;5030913;28;20025;-62
2022/05/02 01:46:26;;;;;;;1.35;1.25;;;;;;;8.08;100.00;90917.44;5030856;28;20056;-62
2022/05/02 01:48:55;;;;;;;7.13;2.35;;;;;;;7.96;100.00;90913.69;5030840;28;20399;-63
2022/05/02 01:51:21;;;;;;;1.38;1.35;;;;;;;8.06;100.00;90909.00;5031240;28;20079;-62
2022/05/02 01:53:47;;;;;;;1.50;1.40;;;;;;;8.00;100.00;90910.16;5031606;28;20056;-62
2022/05/02 01:56:13;;;;;;;1.15;1.13;;;;;;;7.80;100.00;90900.72;5031279;28;20021;-62
2022/05/02 01:58:38;;;;;;;3.22;2.67;;;;;;;7.92;100.00;90902.09;5030740;28;20025;-63
2022/05/02 02:01:04;;;;;;;1.60;1.50;;;;;;;7.95;100.00;90896.22;5029799;28;20036;-63
2022/05/02 02:03:29;;;;;;;1.55;1.45;;;;;;;7.73;100.00;90886.25;5031107;28;20052;-63
2022/05/02 02:05:55;;;;;;;1.48;1.38;;;;;;;7.93;100.00;90896.50;5031039;28;20449;-63
2022/05/02 02:08:23;;;;;;;1.00;1.00;;;;;;;7.81;100.00;90886.38;5030788;28;20037;-62
2022/05/02 02:10:50;;;;;;;1.65;1.58;;;;;;;7.68;100.00;90886.34;5031072;28;20467;-62
2022/05/02 02:13:16;;;;;;;1.67;1.58;;;;;;;7.62;100.00;90876.94;5030992;28;20116;-63
2022/05/02 02:15:42;;;;;;;1.02;1.02;;;;;;;7.74;100.00;90874.63;5030961;28;20061;-62
2022/05/02 02:18:08;;;;;;;1.55;1.45;;;;;;;7.58;100.00;90870.66;5012985;28;20064;-62
2022/05/02 02:20:34;;;;;;;1.77;1.50;;;;;;;7.53;100.00;90874.16;5030860;28;20112;-63
2022/05/02 02:23:00;;;;;;;1.50;1.40;;;;;;;7.51;100.00;90869.16;5030998;28;20044;-63
2022/05/02 02:25:26;;;;;;;1.20;1.15;;;;;;;7.56;100.00;90872.78;5030743;28;20050;-62
2022/05/02 02:27:53;;;;;;;1.33;1.33;;;;;;;7.45;100.00;90872.22;5030726;28;20492;-63
2022/05/02 02:30:19;;;;;;;1.92;1.80;;;;;;;7.44;100.00;90870.63;5030808;28;20018;-62
2022/05/02 02:32:45;;;;;;;2.65;1.23;;;;;;;7.45;100.00;90866.91;5030819;28;20102;-63
2022/05/02 02:35:10;;;;;;;1.30;1.30;;;;;;;7.45;100.00;90858.97;5030781;28;20040;-63
2022/05/02 02:37:36;;;;;;;1.25;1.23;;;;;;;7.56;100.00;90864.84;5012932;28;20025;-63
2022/05/02 02:40:01;;;;;;;2.17;2.08;;;;;;;7.66;100.00;90854.09;5030624;28;20022;-63
2022/05/02 02:42:27;;;;;;;1.50;1.40;;;;;;;7.53;100.00;90838.97;5030751;28;20502;-63
2022/05/02 02:44:52;;;;;;;1.73;1.60;;;;;;;7.58;100.00;90844.97;5030645;28;20075;-63
2022/05/02 02:47:18;;;;;;;2.72;1.77;;;;;;;7.56;100.00;90841.81;5030647;28;20411;-63
2022/05/02 02:49:43;;;;;;;2.47;2.28;;;;;;;7.58;100.00;90842.34;5030614;28;20032;-63
2022/05/02 02:52:09;;;;;;;1.55;1.45;;;;;;;7.61;100.00;90843.59;5030659;28;20029;-63
2022/05/02 02:54:35;;;;;;;1.52;1.42;;;;;;;7.75;100.00;90844.41;5030572;28;20033;-63
2022/05/02 02:57:00;;;;;;;2.17;2.08;;;;;;;7.85;100.00;90849.50;5030480;28;20026;-64
2022/05/02 02:59:26;;;;;;;1.60;1.48;;;;;;;7.90;100.00;90846.78;5030366;28;20029;-63
2022/05/02 03:01:52;;;;;;;1.50;1.40;;;;;;;7.98;100.00;90848.72;5032164;28;20487;-63
2022/05/02 03:07:02;;;;;;;1.73;1.63;;;;;;;8.10;100.00;90841.09;5033991;28;20040;-63
2022/05/02 03:09:29;;;;;;;2.00;1.90;;;;;;;8.19;100.00;90841.16;5033991;28;20025;-63
2022/05/02 03:11:54;;;;;;;2.38;2.03;;;;;;;8.21;100.00;90848.84;5033968;28;20037;-63
2022/05/02 03:14:20;;;;;;;1.60;1.50;;;;;;;8.17;100.00;90845.19;5033953;28;20029;-62
2022/05/02 03:16:45;;;;;;;2.35;2.13;;;;;;;8.11;100.00;90844.50;5033745;28;20025;-62
2022/05/02 03:19:11;;;;;;;1.17;1.17;;;;;;;7.96;100.00;90845.59;5033675;28;20079;-62
2022/05/02 03:21:37;;;;;;;1.30;1.30;;;;;;;7.90;100.00;90836.19;5033809;28;20502;-62
2022/05/02 03:24:02;;;;;;;2.15;1.95;;;;;;;7.88;100.00;90846.25;5033498;28;20056;-63
2022/05/02 03:26:28;;;;;;;1.48;1.40;;;;;;;7.95;100.00;90838.72;5033564;28;20041;-62
2022/05/02 03:28:55;;;;;;;2.33;2.13;;;;;;;7.81;100.00;90837.94;5033521;28;20032;-62
2022/05/02 03:31:20;;;;;;;1.92;1.83;;;;;;;7.94;100.00;90847.75;5036368;28;20112;-62
2022/05/02 03:33:46;;;;;;;1.63;1.55;;;;;;;7.60;100.00;90842.03;5044426;28;20104;-62
2022/05/02 03:36:11;;;;;;;2.53;1.88;;;;;;;7.64;100.00;90838.50;5053234;28;20025;-62
2022/05/02 03:38:37;;;;;;;1.88;1.77;;;;;;;7.56;100.00;90846.31;5053219;28;20036;-62
2022/05/02 03:41:02;;;;;;;2.38;2.17;;;;;;;7.29;100.00;90839.13;5053259;28;20033;-62
2022/05/02 03:43:28;;;;;;;1.88;1.63;;;;;;;7.28;100.00;90834.91;5053272;28;20076;-62
2022/05/02 03:45:53;;;;;;;1.80;1.70;;;;;;;7.39;100.00;90837.09;5053148;28;20033;-62
2022/05/02 03:48:18;;;;;;;1.67;1.58;;;;;;;7.61;100.00;90852.34;5047920;28;20021;-62
2022/05/02 03:50:44;;;;;;;5.93;2.60;;;;;;;7.65;100.00;90850.66;5013433;28;20028;-62
2022/05/02 03:53:09;;;;;;;2.45;2.28;;;;;;;7.58;100.00;90847.63;5013339;28;20112;-62
2022/05/02 03:55:35;;;;;;;1.40;1.30;;;;;;;7.51;100.00;90837.41;5027693;28;20029;-62
2022/05/02 03:58:02;;;;;;;2.00;1.90;;;;;;;7.59;100.00;90835.19;5032973;28;20064;-62
2022/05/02 04:00:28;;;;;;;1.90;1.80;;;;;;;7.55;100.00;90836.81;5030361;28;20408;-62
2022/05/02 04:02:53;;;;;;;1.50;1.40;;;;;;;7.53;100.00;90831.81;5029173;28;20101;-63
2022/05/02 04:05:19;;;;;;;2.28;2.15;;;;;;;7.47;100.00;90838.28;5024423;28;20121;-63
2022/05/02 04:07:44;;;;;;;1.92;1.83;;;;;;;7.71;100.00;90830.94;5022882;28;20073;-62
2022/05/02 04:10:09;;;;;;;1.70;1.60;;;;;;;7.95;100.00;90836.06;5023776;28;20025;-62
2022/05/02 04:12:39;;;;;;;1.55;1.45;;;;;;;8.19;100.00;90835.06;5013019;28;20029;-62
2022/05/02 04:15:06;;;;;;;1.20;1.20;;;;;;;7.85;100.00;90832.81;5012914;28;20042;-62
2022/05/02 04:17:32;;;;;;;1.60;1.50;;;;;;;8.11;100.00;90833.91;5012662;28;20030;-62
2022/05/02 04:19:57;;;;;;;1.40;1.40;;;;;;;8.44;100.00;90837.25;5012688;28;20041;-62
2022/05/02 04:22:23;;;;;;;1.95;1.83;;;;;;;8.48;100.00;90840.09;5023097;28;20030;-63
2022/05/02 04:24:48;;;;;;;2.35;1.52;;;;;;;8.06;100.00;90834.03;5021019;28;20046;-63
2022/05/02 04:27:13;;;;;;;3.13;1.45;;;;;;;8.19;100.00;90837.72;5022571;28;20029;-63
2022/05/02 04:29:39;;;;;;;2.17;1.95;;;;;;;8.32;100.00;90836.94;5022228;28;20495;-63
2022/05/02 04:32:05;;;;;;;2.95;1.52;;;;;;;8.55;100.00;90830.66;5029642;28;20033;-63
2022/05/02 04:34:30;;;;;;;2.13;2.03;;;;;;;8.91;100.00;90828.00;5032305;28;20037;-63
2022/05/02 04:36:56;;;;;;;1.90;1.80;;;;;;;9.23;100.00;90829.63;5048540;28;20031;-63
2022/05/02 04:39:21;;;;;;;2.17;2.08;;;;;;;8.88;100.00;90828.59;5052045;28;20479;-63
2022/05/02 04:41:47;;;;;;;1.55;1.55;;;;;;;9.19;100.00;90827.88;5052198;28;20105;-63
2022/05/02 04:44:12;;;;;;;1.67;1.58;;;;;;;8.88;100.00;90833.13;5051880;28;20033;-62
2022/05/02 04:46:37;;;;;;;1.55;1.45;;;;;;;9.23;100.00;90834.94;5034126;28;20061;-63
2022/05/02 04:49:03;;;;;;;2.45;2.22;;;;;;;9.66;100.00;90828.31;5023415;28;20392;-65
2022/05/02 04:51:28;;;;;;;1.95;1.80;;;;;;;9.79;100.00;90836.22;5020807;28;20462;-62
2022/05/02 04:53:54;;;;;;;1.52;1.40;;;;;;;9.40;100.00;90828.16;5021923;28;20025;-63
2022/05/02 04:56:19;;;;;;;1.65;1.40;;;;;;;9.81;100.00;90833.25;4999600;28;20033;-63
2022/05/02 04:58:45;;;;;;;2.88;1.75;;;;;;;10.22;100.00;90827.63;4994534;28;20091;-64
2022/05/02 05:01:11;;;;;;;1.35;1.35;;;;;;;9.48;100.00;90832.75;5012150;28;20026;-63
2022/05/02 05:03:36;;;;;;;1.05;1.05;;;;;;;9.43;100.00;90819.59;5012210;28;20487;-64
2022/05/02 05:06:02;;;;;;;1.35;1.25;;;;;;;11.07;100.00;90826.22;5017176;28;20420;-64
2022/05/02 05:08:28;;;;;;;2.05;1.92;;;;;;;12.18;100.00;90823.66;5020402;28;20479;-64
2022/05/02 05:11:05;;;;;;;1.70;1.60;;;;;;;14.15;98.59;90826.25;5019110;28;20022;-62
2022/05/02 05:16:20;;;;;;;1.15;1.13;;;;;;;14.47;81.57;90825.44;5011546;28;20034;-63
2022/05/02 05:16:52;;;;;;;;;;;;;;;14.82;82.48;90830.31;5012072;28;20045;-63
2022/05/02 05:20:22;;;;;;;1.45;1.35;;;;;;;12.95;86.67;90834.25;5011817;28;19914;-62
2022/05/02 05:23:18;;;;;;;2.28;1.85;;;;;;;12.30;98.76;90838.97;4913104;29;20032;-63
2022/05/02 05:25:52;;;;;;;1.33;1.27;;;;;;;12.16;100.00;90811.75;4912813;29;20052;-63
2022/05/02 05:28:18;;;;;;;1.40;1.35;;;;;;;12.41;98.42;90823.41;4984837;28;20037;-63
2022/05/02 05:30:46;;;;;;;1.40;1.30;;;;;;;12.74;100.00;90821.63;5011673;28;20037;-63
2022/05/02 05:33:41;;;;;;;1.65;1.55;;;;;;;15.73;84.15;90819.97;5011462;28;20499;-64
2022/05/02 05:36:35;;;;;;;2.45;2.25;;;;;;;17.58;67.29;90822.50;4941189;28;20039;-63
2022/05/02 05:39:15;;;;;;;1.50;1.40;;;;;;;18.00;62.04;90818.34;4993490;28;20046;-63
2022/05/02 05:41:56;;;;;;;1.85;1.75;;;;;;;18.13;59.52;90827.81;5011163;28;20032;-63
2022/05/02 05:44:51;;;;;;;1.38;1.27;;;;;;;17.95;58.78;90811.31;5011439;28;20033;-63
2022/05/02 05:47:29;;;;;;;1.30;1.20;;;;;;;19.05;57.28;90824.00;5011216;28;20100;-62
2022/05/02 05:49:57;;;;;;;2.00;1.65;;;;;;;18.84;55.38;90819.06;5011260;28;20034;-62
2022/05/02 05:52:54;;;;;;;1.50;1.35;;;;;;;14.68;66.50;90818.09;5011354;28;20029;-62
2022/05/02 05:55:43;;;;;;;1.73;1.63;;;;;;;14.58;71.43;90810.50;5011525;28;20506;-62
2022/05/02 05:58:31;;;;;;;1.60;1.50;;;;;;;14.88;70.87;90807.56;4974120;28;20052;-63
2022/05/02 06:01:13;;;;;;;1.20;1.20;;;;;;;14.61;71.10;90796.44;4974049;28;20518;-63
2022/05/02 06:04:02;;;;;;;1.38;1.27;;;;;;;17.39;66.75;90797.50;5011020;28;20392;-63
2022/05/02 06:06:28;;;;;;;1.73;1.63;;;;;;;16.89;61.81;90788.38;4998838;28;20045;-62
2022/05/02 06:08:58;;;;;;;1.50;1.35;;;;;;;19.09;58.23;90802.47;5027184;28;20040;-62
2022/05/02 06:11:28;;;;;;;1.63;1.52;;;;;;;19.47;54.33;90790.69;5030557;28;20234;-63
2022/05/02 06:13:55;;;;;;;5.00;1.90;;;;;;;19.02;54.51;90786.97;5030788;28;20029;-63
2022/05/02 06:19:13;;;;;;;1.20;1.20;;;;;;;18.25;55.54;90787.25;5025401;28;20440;-63
2022/05/02 06:21:49;;;;;;;7.93;1.55;;;;;;;18.17;56.07;90786.38;5030445;28;20030;-63
2022/05/02 06:24:15;;;;;;;1.20;1.20;;;;;;;18.14;57.36;90776.28;5030262;28;20033;-63
2022/05/02 06:26:48;;;;;;;1.40;1.30;;;;;;;15.79;60.14;90770.34;5030422;28;20025;-62
2022/05/02 06:29:18;;;;;;;3.83;1.95;;;;;;;15.84;63.44;90780.81;5030247;28;20025;-62
2022/05/02 06:31:47;;;;;;;1.08;1.08;;;;;;;16.08;63.62;90783.34;4990928;28;20060;-64
2022/05/02 06:34:14;;;;;;;1.23;1.23;;;;;;;15.52;63.33;90787.97;5021938;28;20026;-68
2022/05/02 06:37:20;;;;;;;1.00;1.00;;;;;;;14.42;68.63;90800.75;5019809;28;20033;-64
2022/05/02 06:40:05;;;;;;;1.17;1.17;;;;;;;13.61;74.71;90802.28;5035224;28;20468;-66
2022/05/02 06:42:37;;;;;;;2.28;2.10;;;;;;;13.60;77.01;90803.41;5037110;28;20040;-66
2022/05/02 06:45:06;;;;;;;1.10;1.10;;;;;;;15.38;71.06;90798.28;5016673;28;20037;-66
2022/05/02 06:48:05;;;;;;;1.30;1.20;;;;;;;14.86;70.43;90799.88;5014278;28;20037;-66
2022/05/02 06:50:33;;;;;;;1.20;1.20;;;;;;;14.11;75.70;90796.72;5035379;28;20034;-65
2022/05/02 06:53:27;;;;;;;1.90;1.80;;;;;;;14.92;72.13;90785.13;5034579;28;20037;-67
2022/05/02 06:56:11;;;;;;;1.88;1.50;;;;;;;14.71;72.53;90784.50;4998797;28;20045;-66
2022/05/02 06:59:05;;;;;;;1.05;1.05;;;;;;;14.53;75.91;90780.50;5003148;28;20034;-64
2022/05/02 07:01:34;;;;;;;1.85;1.75;;;;;;;14.70;74.59;90779.47;5004448;28;20514;-64
2022/05/02 07:04:27;;;;;;;1.20;1.10;;;;;;;16.86;63.33;90762.97;5023284;28;20045;-67
2022/05/02 07:06:56;;;;;;;1.33;1.27;;;;;;;21.03;54.71;90771.84;5027631;28;20084;-72
2022/05/02 07:09:53;;;;;;;1.90;1.33;;;;;;;21.40;48.16;90755.47;5020326;28;20258;-68
2022/05/02 07:12:21;;;;;;;1.02;1.02;;;;;;;19.03;52.77;90766.97;5009215;28;20511;-69
2022/05/02 07:14:47;;;;;;;1.17;1.17;;;;;;;19.69;52.35;90753.97;5001059;28;20021;-69
2022/05/02 07:17:26;;;;;;;1.42;1.33;;;;;;;18.01;55.01;90756.09;5008399;28;20099;-64
2022/05/02 07:20:12;;;;;;;1.48;1.38;;;;;;;15.35;63.70;90748.06;5023217;28;20053;-66
2022/05/02 07:23:02;;;;;;;1.00;1.00;;;;;;;16.59;64.97;90745.06;5023784;28;20025;-65
2022/05/02 07:25:29;;;;;;;1.35;1.25;;;;;;;19.55;53.00;90748.41;4980226;28;20508;-65
2022/05/02 07:28:05;;;;;;;1.33;1.33;;;;;;;16.98;57.28;90735.19;5021625;28;20584;-64
2022/05/02 07:30:31;;;;;;;1.45;1.35;;;;;;;17.30;59.86;90722.41;5022547;28;20024;-64
2022/05/02 07:33:01;;;;;;;1.25;1.25;;;;;;;18.09;56.77;90724.66;5021129;28;20061;-66
2022/05/02 07:35:29;;;;;;;1.77;1.67;;;;;;;16.93;58.03;90722.81;5025109;28;20098;-65
2022/05/02 07:37:57;;;;;;;2.22;1.75;;;;;;;15.82;60.86;90721.38;5029512;28;20095;-66
2022/05/02 07:40:23;;;;;;;2.10;2.00;;;;;;;15.27;65.21;90729.09;5033138;28;20025;-67
2022/05/02 07:42:53;;;;;;;1.52;1.40;;;;;;;15.38;65.47;90739.31;5033549;28;20410;-66
2022/05/02 07:45:24;;;;;;;1.13;1.13;;;;;;;14.42;66.81;90742.66;5022955;28;20026;-66
2022/05/02 07:47:52;;;;;;;0.98;0.98;;;;;;;16.80;62.75;90742.88;5018900;28;20041;-68
2022/05/02 07:50:21;;;;;;;1.50;1.40;;;;;;;15.46;62.85;90754.47;5017845;28;20133;-65
2022/05/02 07:52:47;;;;;;;1.10;1.10;;;;;;;16.16;64.30;90744.84;5021925;28;20470;-66
2022/05/02 07:55:14;;;;;;;1.40;1.30;;;;;;;16.69;61.71;90755.28;5026501;28;20030;-67
2022/05/02 07:57:42;;;;;;;1.67;1.58;;;;;;;16.35;60.50;90764.81;5018404;28;20103;-65
2022/05/02 08:00:10;;;;;;;1.25;1.15;;;;;;;15.42;63.41;90757.06;5022627;28;20035;-64
2022/05/02 08:02:35;;;;;;;1.30;1.30;;;;;;;15.34;64.78;90759.91;5019699;28;20058;-64
2022/05/02 08:05:01;;;;;;;1.60;1.50;;;;;;;15.02;63.59;90761.69;5023632;28;20451;-64
2022/05/02 08:07:34;;;;;;;2.25;2.15;;;;;;;14.52;68.38;90776.25;5022231;28;20050;-61
2022/05/02 08:10:40;;;;;;;1.42;1.33;;;;;;;15.34;63.98;90775.97;5019381;28;20031;-65
2022/05/02 08:13:36;;;;;;;1.45;1.35;;;;;;;17.24;58.60;90780.28;5020422;28;20037;-68
2022/05/02 08:16:05;;;;;;;1.80;1.70;;;;;;;18.34;55.76;90774.34;4977221;28;20506;-67
2022/05/02 08:18:43;;;;;;;1.15;1.08;;;;;;;21.23;48.36;90784.72;4994927;28;20130;-67
2022/05/02 08:21:20;;;;;;;1.80;1.70;;;;;;;20.78;46.82;90779.75;5012705;28;20037;-67
2022/05/02 08:27:17;;;;;;;1.60;1.20;;;;;;;18.75;50.10;90772.72;5012423;28;20052;-64
2022/05/02 08:30:05;;;;;;;1.63;1.52;;;;;;;20.11;48.74;90775.28;5012326;28;20026;-64
2022/05/02 08:32:56;;;;;;;1.00;1.00;;;;;;;20.60;45.89;90775.00;5026700;28;20105;-65
2022/05/02 08:36:00;;;;;;;1.40;1.40;;;;;;;18.79;47.33;90794.34;5014305;28;20033;-64
2022/05/02 08:38:25;;;;;;;;;;;;;;;18.22;49.40;90794.13;4978223;28;20092;-63
2022/05/02 08:41:24;;;;;;;2.83;2.23;;;;;;;19.02;48.29;90778.91;5031395;28;20411;-64
2022/05/02 08:44:08;;;;;;;1.17;1.13;;;;;;;20.01;48.79;90765.91;5012919;28;20038;-64
2022/05/02 08:47:17;;;;;;;1.05;1.05;;;;;;;20.28;47.50;90763.88;5020771;28;20026;-64
2022/05/02 08:49:57;;;;;;;1.55;1.48;;;;;;;19.43;47.83;90769.06;5027988;28;20037;-64
2022/05/02 08:52:40;;;;;;;1.33;1.23;;;;;;;20.07;47.79;90758.25;5032039;28;20029;-64
2022/05/02 08:55:14;;;;;;;0.90;0.90;;;;;;;18.73;48.49;90758.81;5031960;28;20106;-63
2022/05/02 08:58:08;;;;;;;1.88;1.65;;;;;;;16.86;53.64;90749.53;5031718;28;20049;-63
2022/05/02 09:01:03;;;;;;;1.00;1.00;;;;;;;16.89;53.52;90756.13;5031731;28;20032;-64
2022/05/02 09:03:54;;;;;;;1.15;1.10;;;;;;;18.67;48.95;90740.63;5032384;28;20037;-64
2022/05/02 09:06:47;;;;;;;1.50;1.40;;;;;;;18.88;49.56;90737.47;5014316;28;20033;-64
2022/05/02 09:09:47;;;;;;;1.55;1.30;;;;;;;17.39;52.00;90747.19;5031792;28;20025;-64
2022/05/02 09:12:35;;;;;;;0.80;0.80;;;;;;;16.48;53.18;90742.91;5031697;28;20108;-64
2022/05/02 09:15:28;;;;;;;1.00;1.00;;;;;;;15.90;55.79;90747.22;5031619;28;20029;-63
2022/05/02 09:18:31;;;;;;;1.42;1.33;;;;;;;15.70;56.50;90737.53;5031532;28;20017;-64
2022/05/02 09:21:07;;;;;;;1.52;1.42;;;;;;;16.45;56.89;90738.25;5031507;28;20072;-64
2022/05/02 09:23:52;;;;;;;1.70;1.60;;;;;;;18.42;53.92;90732.91;5013791;28;20029;-64
2022/05/02 09:26:42;;;;;;;1.17;1.17;;;;;;;19.77;48.62;90725.16;5031228;28;20095;-64
2022/05/02 09:29:13;;;;;;;1.10;1.10;;;;;;;18.47;48.62;90719.16;5031457;28;20499;-64
2022/05/02 09:31:51;;;;;;;1.20;1.15;;;;;;;17.55;50.63;90729.06;5031416;28;20080;-64
2022/05/02 09:34:19;;;;;;;1.10;1.10;;;;;;;17.03;53.19;90724.94;5030864;28;20096;-64
2022/05/02 09:37:02;;;;;;;1.13;1.13;;;;;;;17.64;52.39;90728.84;5030618;28;20029;-65
2022/05/02 09:40:06;;;;;;;1.08;1.08;;;;;;;17.49;51.12;90713.56;5030894;28;20434;-65
2022/05/02 09:42:35;;;;;;;1.65;1.55;;;;;;;19.69;47.10;90719.66;4991595;28;20038;-65
2022/05/02 09:51:29;;;;;;;0.80;0.80;;;;;;;18.45;48.54;90717.94;5009757;28;20034;-65
2022/05/02 09:54:13;;;;;;;1.48;1.38;;;;;;;16.36;52.32;90705.41;5003100;28;20044;-65
2022/05/02 09:56:46;;;;;;;1.00;1.00;;;;;;;16.29;54.42;90699.88;5019609;28;20411;-65
2022/05/02 09:59:17;;;;;;;1.50;1.40;;;;;;;17.33;52.79;90700.19;5023915;28;20108;-65
2022/05/02 10:01:47;;;;;;;1.27;1.17;;;;;;;18.41;49.33;90695.56;5045171;28;20044;-65
2022/05/02 10:04:50;;;;;;;1.00;1.00;;;;;;;18.61;49.51;90707.00;5026804;28;20462;-64
2022/05/02 10:07:18;;;;;;;1.48;1.38;;;;;;;18.42;49.78;90680.97;5030750;28;20029;-65
2022/05/02 10:09:50;;;;;;;1.50;1.40;;;;;;;15.92;52.28;90704.75;5031117;28;20025;-65
2022/05/02 10:12:48;;;;;;;1.63;1.52;;;;;;;15.81;54.06;90715.22;5034386;28;20033;-65
2022/05/02 10:15:20;;;;;;;1.30;1.20;;;;;;;16.93;51.92;90698.63;5034620;28;20108;-65
2022/05/02 10:18:04;;;;;;;1.10;1.10;;;;;;;16.73;50.24;90686.31;5034720;28;20076;-65
2022/05/02 10:20:52;;;;;;;1.30;1.23;;;;;;;15.28;54.35;90693.13;5031566;28;20052;-65
2022/05/02 10:23:17;;;;;;;5.57;2.03;;;;;;;15.51;53.21;90687.22;4979852;28;20072;-65
2022/05/02 10:26:06;;;;;;;1.55;1.45;;;;;;;15.99;53.68;90671.97;5029137;28;20073;-65
2022/05/02 10:29:00;;;;;;;1.10;1.10;;;;;;;15.97;52.16;90669.63;5024665;28;20057;-65
2022/05/02 10:31:25;;;;;;;3.22;1.10;;;;;;;16.59;50.63;90667.97;5022835;28;20435;-66
2022/05/02 10:33:53;;;;;;;1.20;1.20;;;;;;;17.02;50.54;90666.94;5029987;28;20034;-65
2022/05/02 10:36:37;;;;;;;0.98;0.98;;;;;;;16.37;51.98;90663.22;5034149;28;20096;-65
2022/05/02 10:39:19;;;;;;;1.30;1.20;;;;;;;16.72;51.14;90655.97;5023567;28;20409;-66
2022/05/02 10:41:47;;;;;;;1.90;1.20;;;;;;;17.78;48.72;90669.16;5007549;28;20030;-65
2022/05/02 10:44:16;;;;;;;1.48;1.40;;;;;;;18.77;46.45;90653.78;5022652;28;20049;-65
2022/05/02 10:46:44;;;;;;;0.98;0.98;;;;;;;17.12;48.55;90670.22;5021994;28;20064;-66
2022/05/02 10:49:35;;;;;;;1.05;1.05;;;;;;;15.09;54.22;90660.06;5027303;28;20025;-65
2022/05/02 10:52:20;;;;;;;1.35;1.25;;;;;;;16.10;51.60;90663.03;5024926;28;20033;-67
2022/05/02 10:54:52;;;;;;;2.58;1.30;;;;;;;16.42;50.86;90660.31;5021638;28;20108;-65
2022/05/02 10:57:39;;;;;;;0.90;0.90;;;;;;;16.05;52.27;90657.13;5024329;28;20033;-65
2022/05/02 11:00:09;;;;;;;1.42;1.30;;;;;;;16.25;51.39;90663.34;5025297;28;20042;-65
2022/05/02 11:02:49;;;;;;;1.10;1.10;;;;;;;16.45;50.08;90656.91;5012294;28;20515;-65
2022/05/02 11:05:17;;;;;;;1.00;1.00;;;;;;;16.07;51.77;90662.94;5023330;28;20107;-65
2022/05/02 11:07:48;;;;;;;1.73;1.63;;;;;;;16.43;50.99;90664.53;5020476;28;20493;-65
2022/05/02 11:10:18;;;;;;;1.20;1.20;;;;;;;16.32;51.93;90664.28;5029407;28;20021;-65
2022/05/02 11:13:02;;;;;;;1.08;1.08;;;;;;;16.03;50.71;90654.81;5019608;28;20053;-66
2022/05/02 11:15:57;;;;;;;1.00;1.00;;;;;;;16.44;50.02;90658.03;5013720;28;20041;-64
2022/05/02 11:21:30;;;;;;;0.90;0.90;;;;;;;14.43;53.45;90680.00;5032423;28;20052;-64
2022/05/02 11:24:25;;;;;;;1.30;1.30;;;;;;;14.22;54.77;90668.66;5033603;28;20056;-63
2022/05/02 11:27:12;;;;;;;1.70;1.50;;;;;;;14.20;54.07;90670.88;5034122;28;20041;-64
2022/05/02 11:29:41;;;;;;;1.30;1.20;;;;;;;14.45;56.84;90668.97;5018134;28;20100;-65
2022/05/02 11:32:21;;;;;;;1.13;1.08;;;;;;;14.51;56.65;90665.72;5011066;28;20041;-65
2022/05/02 11:35:05;;;;;;;1.10;1.00;;;;;;;14.38;56.41;90666.84;5032128;28;20030;-63
2022/05/02 11:37:30;;;;;;;;;;;;;;;13.91;58.45;90670.00;5033609;28;20416;-64
2022/05/02 11:40:01;;;;;;;2.92;1.65;;;;;;;14.60;56.86;90669.03;5033078;28;19919;-62
2022/05/02 11:42:28;;;;;;;1.20;1.17;;;;;;;14.47;57.54;90656.03;5036012;28;20033;-62
2022/05/02 11:45:13;;;;;;;1.13;1.13;;;;;;;14.51;59.03;90665.72;5023235;28;20058;-63
2022/05/02 11:47:54;;;;;;;1.00;1.00;;;;;;;14.48;57.57;90658.34;5023054;28;20037;-64
2022/05/02 11:50:27;;;;;;;1.05;1.05;;;;;;;14.07;56.40;90670.13;5024430;28;20555;-64
2022/05/02 11:52:59;;;;;;;1.10;1.10;;;;;;;13.46;56.26;90662.84;5021477;28;20034;-64
2022/05/02 11:55:33;;;;;;;1.00;1.00;;;;;;;13.87;58.40;90665.63;5020488;28;20036;-63
2022/05/02 11:58:07;;;;;;;0.90;0.90;;;;;;;13.53;58.98;90648.13;5024847;28;20068;-63
2022/05/02 12:00:35;;;;;;;0.90;0.90;;;;;;;13.39;59.62;90654.56;5014083;28;20032;-64
2022/05/02 12:03:15;;;;;;;0.85;0.85;;;;;;;13.62;58.48;90648.81;5032453;28;20091;-63
2022/05/02 12:05:43;;;;;;;1.55;1.45;;;;;;;13.20;59.87;90640.97;5031339;28;20140;-63
2022/05/02 12:08:20;;;;;;;1.17;1.17;;;;;;;13.29;60.94;90655.03;5031785;28;20025;-64
2022/05/02 12:10:47;;;;;;;6.70;1.15;;;;;;;13.06;60.53;90648.47;5032370;28;20053;-62
2022/05/02 12:13:33;;;;;;;0.88;0.88;;;;;;;12.94;61.02;90637.75;5004848;28;20055;-62
2022/05/02 12:16:09;;;;;;;1.00;1.00;;;;;;;12.97;64.02;90640.56;5032671;28;20466;-63
2022/05/02 12:18:42;;;;;;;0.90;0.90;;;;;;;13.31;64.11;90642.13;5051710;28;20051;-63
2022/05/02 12:21:13;;;;;;;0.85;0.85;;;;;;;13.27;62.83;90645.78;5036233;28;20510;-63